Time;durP1;ratioP1;P1;durP2;ratioP2;P2;SDS_P1;SDS_P2;PMS_P1;PMS_P2;Temp;Humidity;BMP_temperature;BMP_pressure;BME280_temperature;BME280_humidity;BME280_pressure;Samples;Min_cycle;Max_cycle;Signal;HPM_P1;HPM_P2
2023/06/07 00:01:08;;;;;;;10.38;2.92;;;10.50;99.90;;;;;;5062945;28;20058;-88
2023/06/07 00:03:36;;;;;;;13.65;3.03;;;10.50;99.90;;;;;;5032021;28;20047;-88
2023/06/07 00:06:03;;;;;;;11.15;2.55;;;10.50;99.90;;;;;;5064038;28;20040;-87
2023/06/07 00:08:29;;;;;;;10.07;3.28;;;10.50;99.90;;;;;;5066669;28;20080;-87
2023/06/07 00:10:56;;;;;;;9.70;3.50;;;10.50;99.90;;;;;;5050028;28;20424;-88
2023/06/07 00:13:22;;;;;;;14.80;3.53;;;10.50;99.90;;;;;;5067751;28;20040;-87
2023/06/07 00:15:47;;;;;;;8.25;2.70;;;10.40;99.90;;;;;;5066581;28;20047;-87
2023/06/07 00:18:15;;;;;;;8.90;3.08;;;10.40;99.90;;;;;;5049769;28;20040;-87
2023/06/07 00:20:45;;;;;;;7.95;3.47;;;10.40;99.90;;;;;;5067147;28;20112;-88
2023/06/07 00:23:14;;;;;;;9.63;3.40;;;10.40;99.90;;;;;;5048941;28;20043;-87
2023/06/07 00:25:40;;;;;;;9.55;2.83;;;10.50;99.90;;;;;;5050081;28;20040;-87
2023/06/07 00:28:06;;;;;;;8.73;2.88;;;10.30;99.90;;;;;;5065094;28;20078;-86
2023/06/07 00:30:32;;;;;;;11.35;2.75;;;10.30;99.90;;;;;;5066053;28;20076;-87
2023/06/07 00:32:57;;;;;;;11.02;2.67;;;10.90;99.90;;;;;;5064775;28;20495;-88
2023/06/07 00:35:23;;;;;;;7.50;3.00;;;10.60;99.90;;;;;;5031411;28;20040;-87
2023/06/07 00:37:49;;;;;;;10.10;2.42;;;10.30;99.90;;;;;;5065193;28;20375;-87
2023/06/07 00:40:15;;;;;;;9.32;2.63;;;10.30;99.90;;;;;;5063733;28;22056;-87
2023/06/07 00:42:41;;;;;;;8.48;3.28;;;10.20;99.90;;;;;;5049852;28;20507;-86
2023/06/07 00:45:07;;;;;;;12.63;2.85;;;10.20;99.90;;;;;;5064170;28;20055;-88
2023/06/07 00:47:35;;;;;;;10.65;2.28;;;10.20;99.90;;;;;;5049298;28;20047;-88
2023/06/07 00:50:02;;;;;;;12.13;2.60;;;10.20;99.90;;;;;;5047832;28;20052;-88
2023/06/07 00:52:28;;;;;;;11.73;2.17;;;10.20;99.90;;;;;;5064808;28;20047;-88
2023/06/07 00:54:54;;;;;;;8.10;2.20;;;10.60;99.90;;;;;;5048648;28;20048;-87
2023/06/07 00:57:20;;;;;;;13.45;3.13;;;10.10;99.90;;;;;;5047442;28;20044;-87
2023/06/07 00:59:46;;;;;;;8.73;2.42;;;10.10;99.90;;;;;;5053365;28;20036;-87
2023/06/07 01:02:15;;;;;;;11.50;2.00;;;10.10;99.90;;;;;;5051571;28;20036;-87
2023/06/07 01:04:42;;;;;;;5.53;2.75;;;10.10;99.90;;;;;;5068593;28;20047;-88
2023/06/07 01:07:08;;;;;;;13.07;2.08;;;10.10;99.90;;;;;;5068327;28;20133;-87
2023/06/07 01:09:35;;;;;;;6.32;2.05;;;10.10;99.90;;;;;;5068095;28;20576;-87
2023/06/07 01:12:03;;;;;;;5.55;1.83;;;11.10;99.90;;;;;;5051765;28;20048;-87
2023/06/07 01:14:31;;;;;;;14.57;2.45;;;10.10;99.90;;;;;;5067626;28;20376;-87
2023/06/07 01:16:58;;;;;;;6.65;2.45;;;10.10;99.90;;;;;;5069200;28;20051;-87
2023/06/07 01:19:29;;;;;;;8.85;2.20;;;10.10;99.90;;;;;;5050109;28;20051;-87
2023/06/07 01:22:13;;;;;;;6.93;2.58;;;10.10;99.90;;;;;;5069058;28;20411;-87
2023/06/07 01:24:42;;;;;;;10.10;2.20;;;10.10;99.90;;;;;;5051242;28;20055;-87
2023/06/07 01:27:10;;;;;;;14.15;2.80;;;10.10;99.90;;;;;;5034321;28;20048;-88
2023/06/07 01:29:36;;;;;;;9.68;2.50;;;10.70;99.90;;;;;;5069133;28;20045;-87
2023/06/07 01:32:04;;;;;;;11.95;2.42;;;10.10;99.90;;;;;;5034182;28;20478;-87
2023/06/07 01:34:31;;;;;;;8.27;2.10;;;10.20;99.90;;;;;;5069067;28;20119;-87
2023/06/07 01:36:57;;;;;;;5.25;1.90;;;10.10;99.90;;;;;;5051538;28;20449;-87
2023/06/07 01:39:25;;;;;;;13.65;2.47;;;10.20;99.90;;;;;;5070259;28;20056;-87
2023/06/07 01:41:52;;;;;;;9.60;2.42;;;10.30;99.90;;;;;;5052921;28;20044;-87
2023/06/07 01:44:19;;;;;;;10.02;2.63;;;10.30;99.90;;;;;;5052097;28;20239;-87
2023/06/07 01:46:47;;;;;;;16.85;3.83;;;10.30;99.90;;;;;;5053275;28;20032;-88
2023/06/07 01:49:13;;;;;;;11.80;2.65;;;10.30;99.90;;;;;;5034723;28;20063;-87
2023/06/07 01:51:38;;;;;;;9.43;2.30;;;11.30;99.90;;;;;;5068922;28;20048;-87
2023/06/07 01:54:05;;;;;;;13.63;2.28;;;10.40;99.90;;;;;;5050804;28;20471;-87
2023/06/07 01:56:45;;;;;;;7.13;2.00;;;10.40;99.90;;;;;;5067738;28;20051;-88
2023/06/07 01:59:17;;;;;;;7.28;2.45;;;10.40;99.90;;;;;;5067760;28;20044;-88
2023/06/07 02:01:52;;;;;;;3.90;2.25;;;10.70;99.90;;;;;;5066295;28;20044;-87
2023/06/07 02:04:20;;;;;;;10.23;2.15;;;10.40;99.90;;;;;;5068962;28;20044;-87
2023/06/07 02:06:48;;;;;;;12.68;2.10;;;11.10;99.90;;;;;;5050012;28;20043;-87
2023/06/07 02:09:15;;;;;;;9.35;2.47;;;10.40;99.90;;;;;;5049604;28;20048;-87
2023/06/07 02:11:42;;;;;;;6.80;2.15;;;10.40;99.90;;;;;;5050314;28;20496;-87
2023/06/07 02:14:09;;;;;;;7.80;1.98;;;10.50;99.90;;;;;;5033845;28;20036;-87
2023/06/07 02:16:36;;;;;;;10.93;2.78;;;10.60;99.90;;;;;;5034523;28;20124;-87
2023/06/07 02:19:09;;;;;;;11.13;2.50;;;10.60;99.90;;;;;;5049500;28;20101;-88
2023/06/07 02:21:38;;;;;;;11.95;2.92;;;10.60;99.90;;;;;;5051251;28;20131;-87
2023/06/07 02:24:07;;;;;;;11.80;2.15;;;10.60;99.90;;;;;;5033919;28;20060;-88
2023/06/07 02:26:33;;;;;;;11.85;2.13;;;10.70;99.90;;;;;;5017811;28;20040;-88
2023/06/07 02:28:59;;;;;;;8.88;1.92;;;10.90;99.90;;;;;;5050765;28;20047;-87
2023/06/07 02:31:25;;;;;;;7.53;2.08;;;10.70;99.90;;;;;;5066182;28;20051;-88
2023/06/07 02:33:52;;;;;;;12.98;2.00;;;11.10;99.90;;;;;;5050426;28;20044;-87
2023/06/07 02:36:21;;;;;;;8.18;2.08;;;10.80;99.90;;;;;;5065729;28;20040;-88
2023/06/07 02:38:48;;;;;;;6.40;2.00;;;10.80;99.90;;;;;;5067374;28;20090;-87
2023/06/07 02:41:14;;;;;;;12.05;2.55;;;10.80;99.90;;;;;;5049592;28;20048;-87
2023/06/07 02:43:39;;;;;;;8.95;1.65;;;10.80;99.90;;;;;;5067010;28;20059;-87
2023/06/07 02:46:06;;;;;;;7.60;2.25;;;10.80;99.90;;;;;;5033440;28;20040;-87
2023/06/07 02:48:32;;;;;;;6.28;2.15;;;10.80;99.90;;;;;;5017558;28;20040;-87
2023/06/07 02:50:58;;;;;;;7.80;2.17;;;10.80;99.90;;;;;;5034018;28;20388;-87
2023/06/07 02:53:24;;;;;;;9.13;1.77;;;10.80;99.90;;;;;;5015357;28;20079;-87
2023/06/07 02:55:50;;;;;;;8.82;2.88;;;10.80;99.90;;;;;;5034508;28;20051;-87
2023/06/07 02:58:16;;;;;;;6.07;1.60;;;10.80;99.90;;;;;;5032671;28;20436;-88
2023/06/07 03:00:44;;;;;;;13.57;2.28;;;11.00;99.90;;;;;;5017231;28;20044;-87
2023/06/07 03:03:10;;;;;;;7.00;2.03;;;10.80;99.90;;;;;;5033974;28;20534;-88
2023/06/07 03:05:36;;;;;;;12.48;2.60;;;10.80;99.90;;;;;;5032411;28;20048;-88
2023/06/07 03:08:02;;;;;;;12.70;2.67;;;10.90;99.90;;;;;;5033479;28;20043;-87
2023/06/07 03:10:28;;;;;;;8.60;2.38;;;10.90;99.90;;;;;;5065375;28;20064;-87
2023/06/07 03:12:53;;;;;;;14.45;2.70;;;10.90;99.90;;;;;;5066809;28;20044;-87
2023/06/07 03:15:19;;;;;;;12.55;2.75;;;10.90;99.90;;;;;;5049088;28;20048;-87
2023/06/07 03:17:45;;;;;;;12.98;2.22;;;11.00;99.90;;;;;;5033141;28;20690;-88
2023/06/07 03:20:11;;;;;;;13.68;3.53;;;11.00;99.90;;;;;;5033643;28;20138;-88
2023/06/07 03:22:37;;;;;;;14.20;3.63;;;12.20;99.90;;;;;;5066093;28;20184;-87
2023/06/07 03:25:03;;;;;;;7.00;2.50;;;11.10;99.90;;;;;;5066335;28;20079;-88
2023/06/07 03:27:32;;;;;;;11.30;2.40;;;11.10;99.90;;;;;;5049233;28;20545;-87
2023/06/07 03:29:59;;;;;;;8.75;2.30;;;11.10;99.90;;;;;;5066683;28;20093;-88
2023/06/07 03:32:25;;;;;;;7.43;2.33;;;11.20;99.90;;;;;;5048858;28;20040;-87
2023/06/07 03:34:51;;;;;;;8.10;2.60;;;11.20;99.90;;;;;;5065995;28;20085;-87
2023/06/07 03:37:16;;;;;;;12.68;2.47;;;11.20;99.90;;;;;;5065392;28;20093;-87
2023/06/07 03:39:42;;;;;;;9.55;2.67;;;11.20;99.90;;;;;;5065163;28;20059;-87
2023/06/07 03:42:08;;;;;;;10.85;2.58;;;11.30;99.90;;;;;;5049156;28;20054;-87
2023/06/07 03:44:34;;;;;;;10.73;2.30;;;11.30;99.90;;;;;;5064824;28;20056;-88
2023/06/07 03:46:59;;;;;;;16.35;2.83;;;11.30;99.90;;;;;;5066614;28;20469;-87
2023/06/07 03:49:25;;;;;;;15.25;2.50;;;11.40;99.90;;;;;;5048345;28;20104;-87
2023/06/07 03:51:51;;;;;;;5.50;1.65;;;11.40;99.90;;;;;;5049894;28;20074;-87
2023/06/07 03:54:17;;;;;;;6.90;2.20;;;11.40;99.90;;;;;;5049089;28;20044;-86
2023/06/07 03:56:42;;;;;;;9.75;1.98;;;11.50;99.90;;;;;;5049617;28;20047;-87
2023/06/07 03:59:08;;;;;;;8.82;1.80;;;11.50;99.90;;;;;;5066591;28;20040;-87
2023/06/07 04:01:34;;;;;;;9.52;2.70;;;11.50;99.90;;;;;;5048734;28;20105;-87
2023/06/07 04:04:00;;;;;;;9.23;2.38;;;11.50;99.90;;;;;;5049899;28;20047;-87
2023/06/07 04:06:26;;;;;;;5.30;2.10;;;11.60;99.90;;;;;;5047520;28;20043;-87
2023/06/07 04:08:52;;;;;;;11.25;2.75;;;11.90;99.90;;;;;;5049019;28;20093;-88
2023/06/07 04:11:21;;;;;;;9.50;2.25;;;12.80;99.90;;;;;;5065613;28;20052;-88
2023/06/07 04:13:46;;;;;;;8.63;2.35;;;11.70;99.90;;;;;;5049288;28;20036;-87
2023/06/07 04:16:12;;;;;;;11.48;2.15;;;11.80;99.90;;;;;;5065390;28;20039;-88
2023/06/07 04:18:38;;;;;;;7.18;1.65;;;11.80;99.90;;;;;;5048413;28;20083;-87
2023/06/07 04:21:05;;;;;;;11.25;2.17;;;11.80;99.90;;;;;;5049862;28;20048;-87
2023/06/07 04:23:31;;;;;;;10.95;1.95;;;11.90;99.90;;;;;;5032204;28;20311;-87
2023/06/07 04:25:58;;;;;;;12.98;3.78;;;11.90;99.90;;;;;;5049419;28;20067;-87
2023/06/07 04:28:24;;;;;;;12.63;2.15;;;12.00;99.90;;;;;;5048408;28;20040;-87
2023/06/07 04:30:53;;;;;;;6.13;1.55;;;12.00;99.90;;;;;;5065955;28;20074;-87
2023/06/07 04:33:20;;;;;;;7.88;1.65;;;12.00;99.90;;;;;;5067511;28;20495;-86
2023/06/07 04:35:46;;;;;;;6.25;1.95;;;12.00;99.90;;;;;;5069526;28;20075;-86
2023/06/07 04:38:21;;;;;;;8.55;2.00;;;12.10;99.90;;;;;;5070243;28;20503;-85
2023/06/07 04:40:50;;;;;;;6.47;1.88;;;12.10;99.90;;;;;;5068474;28;20467;-87
2023/06/07 04:43:18;;;;;;;11.68;1.58;;;12.20;99.90;;;;;;5069976;28;20040;-87
2023/06/07 04:45:53;;;;;;;6.47;1.60;;;12.10;99.90;;;;;;5069194;28;20103;-87
2023/06/07 04:48:28;;;;;;;7.85;1.67;;;12.10;99.90;;;;;;5053698;28;20180;-86
2023/06/07 04:51:03;;;;;;;8.20;1.75;;;12.20;99.90;;;;;;5053073;28;20924;-86
2023/06/07 04:53:36;;;;;;;7.32;1.83;;;12.20;99.90;;;;;;5068968;28;20048;-84
2023/06/07 04:56:03;;;;;;;3.00;0.88;;;13.80;99.90;;;;;;5038091;28;20043;-85
2023/06/07 04:58:29;;;;;;;12.43;2.13;;;12.30;99.90;;;;;;5051881;28;20126;-86
2023/06/07 05:00:56;;;;;;;9.68;2.10;;;12.40;99.90;;;;;;5069689;28;20143;-85
2023/06/07 05:03:24;;;;;;;4.00;1.38;;;12.40;99.90;;;;;;5069338;28;20494;-84
2023/06/07 05:05:51;;;;;;;9.18;1.90;;;12.40;99.90;;;;;;5036257;28;20052;-86
2023/06/07 05:08:17;;;;;;;7.13;1.60;;;12.40;99.90;;;;;;5069561;28;20044;-87
2023/06/07 05:10:43;;;;;;;7.05;1.67;;;12.40;99.90;;;;;;5052839;28;20135;-86
2023/06/07 05:13:09;;;;;;;4.32;1.45;;;12.50;99.90;;;;;;5053084;28;20070;-88
2023/06/07 05:15:35;;;;;;;9.63;1.38;;;12.50;99.90;;;;;;5069052;28;20040;-87
2023/06/07 05:18:02;;;;;;;8.40;2.03;;;12.50;99.90;;;;;;5053085;28;20040;-85
2023/06/07 05:20:28;;;;;;;6.78;2.47;;;12.30;99.90;;;;;;5036495;28;20235;-86
2023/06/07 05:22:54;;;;;;;9.93;2.10;;;12.60;99.90;;;;;;5052486;28;20127;-86
2023/06/07 05:25:20;;;;;;;10.07;2.28;;;12.50;99.90;;;;;;5053031;28;20400;-87
2023/06/07 05:27:48;;;;;;;10.88;1.90;;;12.60;99.90;;;;;;5052124;28;20131;-89
2023/06/07 05:30:15;;;;;;;7.05;2.08;;;12.70;99.90;;;;;;5035672;28;20509;-86
2023/06/07 05:32:41;;;;;;;7.60;1.45;;;12.80;99.90;;;;;;5068529;28;20039;-88
2023/06/07 05:35:07;;;;;;;9.40;1.67;;;12.90;99.90;;;;;;5051908;28;20151;-87
2023/06/07 05:37:32;;;;;;;3.90;1.60;;;12.90;99.90;;;;;;5035992;28;20480;-88
2023/06/07 05:39:58;;;;;;;8.35;1.70;;;13.00;99.90;;;;;;5036321;28;20126;-86
2023/06/07 05:42:24;;;;;;;4.88;2.30;;;13.10;99.90;;;;;;5051819;28;20044;-85
2023/06/07 05:44:50;;;;;;;5.53;1.50;;;13.10;99.90;;;;;;5052254;28;20051;-88
2023/06/07 05:47:17;;;;;;;4.28;1.33;;;13.10;99.90;;;;;;5069189;28;20051;-89
2023/06/07 05:49:43;;;;;;;6.25;1.98;;;13.10;99.90;;;;;;5071474;28;20040;-88
2023/06/07 05:52:09;;;;;;;9.35;1.90;;;13.10;99.90;;;;;;5055093;28;20040;-89
2023/06/07 05:54:38;;;;;;;9.43;1.70;;;13.10;99.90;;;;;;5069275;28;20516;-87
2023/06/07 05:57:05;;;;;;;7.70;1.58;;;13.10;99.90;;;;;;5068315;28;20563;-87
2023/06/07 05:59:31;;;;;;;7.93;1.83;;;13.20;99.90;;;;;;5068627;28;20083;-84
2023/06/07 06:01:57;;;;;;;6.13;2.00;;;13.20;99.90;;;;;;5051901;28;20086;-91
2023/06/07 06:04:24;;;;;;;6.07;1.42;;;13.20;99.90;;;;;;5051889;28;20535;-88
2023/06/07 06:06:50;;;;;;;14.95;1.95;;;13.30;99.90;;;;;;5051352;28;20040;-87
2023/06/07 06:09:17;;;;;;;5.03;1.65;;;13.30;99.90;;;;;;5067958;28;20410;-87
2023/06/07 06:11:43;;;;;;;7.40;1.77;;;13.30;99.90;;;;;;5068203;28;20071;-86
2023/06/07 06:14:10;;;;;;;6.43;1.50;;;13.30;99.90;;;;;;5035331;28;20079;-87
2023/06/07 06:16:35;;;;;;;5.43;1.42;;;13.40;99.90;;;;;;5051179;28;20044;-87
2023/06/07 06:19:01;;;;;;;6.88;1.55;;;13.30;99.90;;;;;;5067610;28;20097;-87
2023/06/07 06:21:27;;;;;;;6.70;1.73;;;13.40;99.90;;;;;;5050831;28;20127;-87
2023/06/07 06:23:52;;;;;;;7.85;2.15;;;13.40;99.90;;;;;;5018226;28;20039;-88
2023/06/07 06:26:18;;;;;;;7.10;1.63;;;13.60;99.90;;;;;;5050855;28;20040;-87
2023/06/07 06:28:44;;;;;;;6.05;1.50;;;13.60;99.90;;;;;;5051285;28;20036;-87
2023/06/07 06:31:11;;;;;;;9.77;1.80;;;13.70;99.90;;;;;;5050790;28;20048;-87
2023/06/07 06:33:36;;;;;;;9.45;1.73;;;13.80;99.90;;;;;;5034481;28;20059;-87
2023/06/07 06:36:03;;;;;;;12.45;2.15;;;13.90;99.90;;;;;;5033606;28;20048;-87
2023/06/07 06:38:28;;;;;;;6.15;1.65;;;13.90;99.90;;;;;;5051100;28;20499;-86
2023/06/07 06:40:54;;;;;;;6.72;1.80;;;14.00;99.90;;;;;;5050372;28;20047;-85
2023/06/07 06:43:20;;;;;;;6.35;1.80;;;14.00;99.90;;;;;;5049102;28;20044;-85
2023/06/07 06:45:46;;;;;;;6.63;1.40;;;14.00;99.90;;;;;;5034765;28;20428;-86
2023/06/07 06:48:12;;;;;;;6.43;1.40;;;14.10;99.90;;;;;;5066686;28;20073;-85
2023/06/07 06:50:38;;;;;;;8.18;1.92;;;14.10;99.90;;;;;;5049706;28;20101;-86
2023/06/07 06:53:04;;;;;;;8.00;1.70;;;14.20;99.90;;;;;;5050048;28;20050;-85
2023/06/07 06:55:30;;;;;;;6.07;1.70;;;14.30;99.90;;;;;;5049286;28;20040;-85
2023/06/07 06:57:56;;;;;;;5.32;1.80;;;13.90;99.90;;;;;;5034029;28;20087;-85
2023/06/07 07:00:23;;;;;;;8.15;1.73;;;14.80;99.90;;;;;;5065450;28;20475;-86
2023/06/07 07:02:49;;;;;;;6.50;1.30;;;15.10;99.90;;;;;;5066530;28;20159;-85
2023/06/07 07:05:15;;;;;;;12.75;2.08;;;15.40;99.90;;;;;;5049393;28;20040;-85
2023/06/07 07:07:41;;;;;;;7.38;1.52;;;15.70;99.90;;;;;;5066458;28;20495;-85
2023/06/07 07:10:08;;;;;;;4.85;1.75;;;15.80;99.90;;;;;;5065184;28;20139;-86
2023/06/07 07:12:35;;;;;;;7.25;1.90;;;15.70;99.90;;;;;;5066594;28;20498;-86
2023/06/07 07:15:01;;;;;;;4.25;1.60;;;15.70;99.90;;;;;;5049287;28;20491;-85
2023/06/07 07:17:26;;;;;;;2.85;1.35;;;15.80;99.90;;;;;;5032067;28;20044;-86
2023/06/07 07:19:53;;;;;;;5.38;1.42;;;15.70;99.90;;;;;;5049820;28;20572;-86
2023/06/07 07:22:19;;;;;;;5.93;1.13;;;15.70;99.90;;;;;;5032035;28;20104;-86
2023/06/07 07:24:45;;;;;;;8.13;1.92;;;15.60;99.90;;;;;;5066604;28;20135;-85
2023/06/07 07:27:10;;;;;;;4.60;1.63;;;15.60;99.90;;;;;;5032616;28;20410;-85
2023/06/07 07:29:36;;;;;;;4.65;1.27;;;15.50;99.90;;;;;;5033339;28;20044;-86
2023/06/07 07:32:02;;;;;;;7.05;1.85;;;15.30;99.90;;;;;;5032030;28;20044;-86
2023/06/07 07:34:28;;;;;;;15.27;1.98;;;15.30;99.90;;;;;;5033041;28;20077;-86
2023/06/07 07:36:57;;;;;;;6.03;1.60;;;15.30;99.90;;;;;;5049449;28;20044;-85
2023/06/07 07:39:25;;;;;;;7.60;1.65;;;15.30;99.90;;;;;;5049124;28;20569;-85
2023/06/07 07:41:51;;;;;;;8.23;1.67;;;15.40;99.90;;;;;;5050109;28;20557;-84
2023/06/07 07:44:17;;;;;;;13.43;2.00;;;15.60;99.90;;;;;;5015779;28;20127;-86
2023/06/07 07:46:42;;;;;;;4.55;1.30;;;15.90;99.90;;;;;;5032884;28;20140;-86
2023/06/07 07:49:09;;;;;;;9.45;1.75;;;16.20;99.90;;;;;;5048079;28;20044;-86
2023/06/07 07:51:35;;;;;;;9.02;1.92;;;16.30;99.90;;;;;;5049756;28;20044;-85
2023/06/07 07:54:01;;;;;;;8.82;4.05;;;16.50;99.90;;;;;;5064891;28;20450;-86
2023/06/07 07:56:27;;;;;;;7.03;1.80;;;16.50;99.90;;;;;;5015619;28;20044;-84
2023/06/07 07:58:53;;;;;;;9.23;1.75;;;16.50;99.90;;;;;;5049487;28;20040;-84
2023/06/07 08:01:19;;;;;;;4.13;1.83;;;16.30;99.90;;;;;;5064206;28;20048;-85
2023/06/07 08:03:48;;;;;;;7.68;1.50;;;16.20;99.90;;;;;;5049351;28;20119;-84
2023/06/07 08:06:15;;;;;;;6.85;2.13;;;16.30;99.90;;;;;;5047675;28;20047;-85
2023/06/07 08:08:40;;;;;;;7.47;1.90;;;16.40;99.90;;;;;;5032104;28;20044;-85
2023/06/07 08:11:06;;;;;;;5.13;1.48;;;16.60;99.90;;;;;;5047854;28;20091;-85
2023/06/07 08:13:32;;;;;;;6.43;1.70;;;16.70;99.90;;;;;;5065633;28;20044;-84
2023/06/07 08:15:58;;;;;;;6.05;2.35;;;16.80;99.90;;;;;;5066987;28;20123;-85
2023/06/07 08:18:23;;;;;;;12.65;1.73;;;16.90;99.90;;;;;;5047539;28;20040;-85
2023/06/07 08:20:49;;;;;;;5.10;1.80;;;17.00;99.90;;;;;;5032667;28;20132;-85
2023/06/07 08:23:15;;;;;;;6.95;1.63;;;17.20;99.90;;;;;;5047770;28;20051;-84
2023/06/07 08:25:41;;;;;;;4.03;1.40;;;17.30;99.90;;;;;;5049095;28;20161;-84
2023/06/07 08:28:07;;;;;;;5.07;1.67;;;17.30;99.90;;;;;;5032612;28;20079;-85
2023/06/07 08:30:33;;;;;;;7.30;2.00;;;17.30;99.90;;;;;;5064889;28;20047;-85
2023/06/07 08:32:59;;;;;;;8.68;1.95;;;17.30;99.90;;;;;;5049106;28;20040;-85
2023/06/07 08:35:25;;;;;;;5.45;1.27;;;17.50;99.90;;;;;;5031565;28;20067;-85
2023/06/07 08:37:51;;;;;;;10.10;1.83;;;17.60;99.90;;;;;;5065141;28;20131;-85
2023/06/07 08:40:19;;;;;;;4.57;1.90;;;17.80;99.90;;;;;;5047388;28;20127;-85
2023/06/07 08:42:45;;;;;;;4.78;1.83;;;18.00;99.90;;;;;;5048944;28;20415;-87
2023/06/07 08:45:11;;;;;;;6.95;1.42;;;17.90;99.90;;;;;;5031217;28;20055;-86
2023/06/07 08:47:41;;;;;;;6.43;1.83;;;17.80;99.90;;;;;;5047557;28;20135;-86
2023/06/07 08:50:13;;;;;;;11.38;3.25;;;17.80;99.90;;;;;;5049323;28;20040;-86
2023/06/07 08:52:41;;;;;;;8.77;2.25;;;17.70;99.90;;;;;;5048059;28;20044;-86
2023/06/07 08:55:12;;;;;;;8.00;1.63;;;17.70;99.90;;;;;;5047981;28;20036;-85
2023/06/07 08:57:38;;;;;;;6.95;2.00;;;17.70;99.90;;;;;;5047060;28;20048;-86
2023/06/07 09:00:08;;;;;;;4.82;1.35;;;17.70;99.90;;;;;;5048233;28;20082;-86
2023/06/07 09:02:34;;;;;;;7.47;1.58;;;17.70;99.90;;;;;;5031577;28;20047;-86
2023/06/07 09:05:06;;;;;;;4.78;1.52;;;17.90;99.90;;;;;;5030386;28;20089;-86
2023/06/07 09:07:32;;;;;;;3.97;1.27;;;17.90;99.90;;;;;;5033047;28;20040;-88
2023/06/07 09:09:58;;;;;;;7.30;1.48;;;18.00;99.90;;;;;;5046923;28;20056;-86
2023/06/07 09:12:24;;;;;;;8.35;1.88;;;18.10;99.90;;;;;;5065358;28;20055;-86
2023/06/07 09:14:50;;;;;;;7.85;1.88;;;18.30;99.90;;;;;;5046869;28;20430;-86
2023/06/07 09:17:16;;;;;;;10.32;2.17;;;18.50;99.90;;;;;;5032115;28;20047;-85
2023/06/07 09:19:42;;;;;;;9.48;2.03;;;18.70;99.90;;;;;;5049763;28;20039;-86
2023/06/07 09:22:12;;;;;;;9.27;2.33;;;18.80;99.90;;;;;;5034655;28;20195;-86
2023/06/07 09:24:38;;;;;;;8.57;2.17;;;19.00;99.90;;;;;;5052367;28;20087;-86
2023/06/07 09:27:04;;;;;;;6.35;1.88;;;18.90;99.90;;;;;;5067197;28;20048;-87
2023/06/07 09:29:39;;;;;;;6.82;2.28;;;18.80;99.90;;;;;;5052704;28;20105;-86
2023/06/07 09:32:23;;;;;;;9.60;2.42;;;18.70;99.90;;;;;;5051039;28;20044;-86
2023/06/07 09:34:52;;;;;;;5.90;2.42;;;18.80;99.90;;;;;;5068038;28;20040;-87
2023/06/07 09:37:20;;;;;;;11.05;1.92;;;18.90;99.90;;;;;;5054253;28;20093;-94
2023/06/07 09:39:50;;;;;;;8.35;2.13;;;19.10;99.90;;;;;;5053018;28;20061;-90
2023/06/07 09:42:16;;;;;;;10.55;2.10;;;19.20;99.90;;;;;;5053502;28;20043;-88
2023/06/07 09:44:43;;;;;;;7.72;2.13;;;19.30;99.90;;;;;;5018235;28;20048;-89
2023/06/07 09:47:27;;;;;;;8.23;2.40;;;19.40;99.90;;;;;;5068543;28;20154;-86
2023/06/07 09:50:05;;;;;;;7.50;2.75;;;19.40;99.90;;;;;;5051690;28;20050;-85
2023/06/07 09:52:31;;;;;;;7.57;2.13;;;19.40;99.90;;;;;;5066982;28;20055;-86
2023/06/07 09:54:57;;;;;;;7.65;1.90;;;19.40;99.90;;;;;;5068609;28;20048;-87
2023/06/07 09:57:25;;;;;;;7.10;2.60;;;19.50;99.90;;;;;;5066789;28;20396;-86
2023/06/07 10:00:20;;;;;;;10.77;2.40;;;19.50;99.90;;;;;;5051241;28;20067;-86
2023/06/07 10:02:47;;;;;;;6.78;1.60;;;19.50;99.90;;;;;;5067121;28;20048;-86
2023/06/07 10:05:15;;;;;;;7.82;2.03;;;19.30;99.90;;;;;;5066548;28;20530;-86
2023/06/07 10:07:49;;;;;;;7.95;2.10;;;19.40;99.90;;;;;;5068188;28;20568;-85
2023/06/07 10:10:19;;;;;;;5.00;2.10;;;19.50;99.90;;;;;;5049694;28;20455;-86
2023/06/07 10:12:46;;;;;;;8.43;2.13;;;19.50;99.90;;;;;;5051939;28;20067;-86
2023/06/07 10:15:20;;;;;;;7.80;1.98;;;19.50;99.90;;;;;;5033925;28;20138;-87
2023/06/07 10:17:59;;;;;;;4.13;1.80;;;19.50;99.90;;;;;;5068304;28;20551;-85
2023/06/07 10:20:30;;;;;;;10.50;2.60;;;19.40;99.90;;;;;;5053139;28;20048;-86
2023/06/07 10:23:05;;;;;;;5.93;1.90;;;19.60;99.90;;;;;;5067134;28;20122;-86
2023/06/07 10:25:41;;;;;;;8.52;2.40;;;19.70;99.90;;;;;;5070046;28;20100;-87
2023/06/07 10:28:16;;;;;;;8.52;2.50;;;19.80;99.90;;;;;;5068199;28;20132;-87
2023/06/07 10:30:52;;;;;;;6.47;2.60;;;19.80;99.90;;;;;;5049280;28;20048;-87
2023/06/07 10:33:18;;;;;;;13.73;3.33;;;19.80;99.90;;;;;;5068296;28;20385;-87
2023/06/07 10:35:45;;;;;;;14.07;2.65;;;19.90;99.90;;;;;;5049093;28;20051;-88
2023/06/07 10:38:12;;;;;;;7.00;2.47;;;19.90;99.90;;;;;;5034647;28;20052;-88
2023/06/07 10:40:38;;;;;;;6.57;2.15;;;19.90;99.90;;;;;;5065761;28;20040;-87
2023/06/07 10:43:04;;;;;;;7.22;1.80;;;20.00;99.90;;;;;;5034892;28;20051;-88
2023/06/07 10:45:30;;;;;;;6.68;2.13;;;19.90;99.90;;;;;;5066416;28;20037;-88
2023/06/07 10:47:56;;;;;;;7.93;1.98;;;19.90;99.90;;;;;;5049811;28;20048;-88
2023/06/07 10:50:28;;;;;;;8.60;2.25;;;19.90;99.90;;;;;;5051614;28;20048;-85
2023/06/07 10:52:58;;;;;;;7.60;2.38;;;20.10;99.90;;;;;;5049211;28;20097;-84
2023/06/07 10:55:32;;;;;;;6.03;1.95;;;20.10;99.90;;;;;;5069083;28;20044;-84
2023/06/07 10:58:01;;;;;;;7.55;2.17;;;20.20;99.90;;;;;;5050474;28;20394;-83
2023/06/07 11:00:29;;;;;;;8.63;2.20;;;20.30;99.90;;;;;;5066864;28;20572;-88
2023/06/07 11:03:24;;;;;;;7.90;2.00;;;20.40;99.90;;;;;;5050236;28;20044;-87
2023/06/07 11:05:53;;;;;;;5.25;1.52;;;20.60;99.90;;;;;;5040758;28;20052;-88
2023/06/07 11:08:28;;;;;;;7.93;1.85;;;20.80;99.90;;;;;;5051146;28;20136;-91
2023/06/07 11:11:26;;;;;;;8.48;2.33;;;20.90;99.90;;;;;;5049007;28;20048;-92
2023/06/07 11:13:54;;;;;;;6.15;1.90;;;20.90;99.90;;;;;;5050532;28;20499;-90
2023/06/07 11:16:23;;;;;;;10.05;2.15;;;21.00;99.90;;;;;;5068753;28;20044;-93
2023/06/07 11:18:57;;;;;;;6.47;1.90;;;21.00;99.90;;;;;;5049569;28;20055;-91
2023/06/07 11:21:30;;;;;;;7.75;2.05;;;21.20;99.90;;;;;;5068545;28;20055;-91
2023/06/07 11:24:13;;;;;;;5.80;2.25;;;21.30;99.90;;;;;;5037011;28;20099;-91
2023/06/07 11:26:40;;;;;;;5.63;1.70;;;21.40;99.90;;;;;;5053048;28;20051;-92
2023/06/07 11:29:08;;;;;;;6.72;1.92;;;21.30;99.90;;;;;;5071062;28;20044;-93
2023/06/07 11:31:34;;;;;;;5.65;1.90;;;21.30;99.90;;;;;;5040914;28;20032;-92
2023/06/07 11:34:00;;;;;;;7.07;2.22;;;21.30;99.90;;;;;;5054070;28;20555;-87
2023/06/07 11:36:35;;;;;;;6.03;2.17;;;21.20;99.90;;;;;;5032835;28;20052;-87
2023/06/07 11:39:05;;;;;;;6.15;1.90;;;21.20;99.90;;;;;;5068308;28;20588;-89
2023/06/07 11:41:31;;;;;;;7.32;2.15;;;21.10;99.90;;;;;;5051241;28;20044;-87
2023/06/07 11:44:01;;;;;;;5.80;1.65;;;21.20;99.90;;;;;;5035149;28;20047;-90
2023/06/07 11:46:34;;;;;;;4.68;1.88;;;21.20;99.90;;;;;;5067782;28;20051;-89
2023/06/07 11:49:09;;;;;;;4.63;1.70;;;21.30;99.90;;;;;;5033224;28;20131;-88
2023/06/07 11:51:36;;;;;;;6.97;1.80;;;21.40;99.90;;;;;;5050747;28;20134;-95
2023/06/07 11:54:02;;;;;;;3.38;1.60;;;21.50;99.90;;;;;;5016013;28;20051;-86
2023/06/07 11:56:28;;;;;;;4.25;1.60;;;21.60;99.90;;;;;;5015640;28;20036;-86
2023/06/07 11:59:04;;;;;;;7.25;1.77;;;21.80;99.90;;;;;;5048682;28;20040;-86
2023/06/07 12:01:31;;;;;;;7.45;2.50;;;21.80;99.90;;;;;;5048157;28;20048;-86
2023/06/07 12:03:57;;;;;;;7.88;1.75;;;21.90;99.90;;;;;;5066002;28;20328;-87
2023/06/07 12:06:27;;;;;;;7.85;2.08;;;21.90;99.90;;;;;;5047206;28;20089;-86
2023/06/07 12:08:53;;;;;;;10.23;2.95;;;21.70;99.90;;;;;;5032743;28;20476;-85
2023/06/07 12:11:26;;;;;;;8.68;1.88;;;21.70;99.90;;;;;;5047396;28;20131;-86
2023/06/07 12:13:59;;;;;;;5.55;1.77;;;21.70;99.90;;;;;;5048078;28;20052;-84
2023/06/07 12:16:26;;;;;;;7.63;2.53;;;21.60;99.90;;;;;;5050750;28;20047;-83
2023/06/07 12:18:51;;;;;;;6.75;1.42;;;21.60;99.90;;;;;;5063593;28;20495;-84
2023/06/07 12:21:18;;;;;;;4.10;1.60;;;21.60;99.90;;;;;;5049436;28;20090;-84
2023/06/07 12:23:50;;;;;;;4.85;1.52;;;21.50;99.90;;;;;;5046970;28;20545;-84
2023/06/07 12:26:25;;;;;;;6.53;2.28;;;21.50;99.90;;;;;;5065678;28;20102;-84
2023/06/07 12:28:51;;;;;;;7.57;2.20;;;21.30;99.90;;;;;;5048250;28;20098;-83
2023/06/07 12:31:21;;;;;;;4.82;1.65;;;21.20;99.90;;;;;;5063628;28;20044;-83
2023/06/07 12:34:05;;;;;;;8.27;1.92;;;21.30;99.90;;;;;;5066225;28;20044;-86
2023/06/07 12:36:36;;;;;;;4.70;1.65;;;21.50;99.90;;;;;;5063149;28;20664;-85
2023/06/07 12:39:10;;;;;;;7.28;2.45;;;21.70;99.90;;;;;;5048453;28;20046;-85
2023/06/07 12:41:37;;;;;;;5.40;1.70;;;21.80;99.90;;;;;;5048330;28;20415;-84
2023/06/07 12:44:05;;;;;;;5.13;2.25;;;21.80;99.90;;;;;;5046681;28;20045;-84
2023/06/07 12:46:31;;;;;;;5.45;2.60;;;21.90;99.90;;;;;;5065128;28;20127;-85
2023/06/07 12:48:57;;;;;;;10.23;1.98;;;21.70;99.80;;;;;;5047047;28;20126;-87